createdAt,value
2019-03-31T00:01:45.405Z,8.60
2019-03-31T00:04:16.596Z,8.50
2019-03-31T00:06:47.678Z,8.50
2019-03-31T00:09:18.773Z,8.40
2019-03-31T00:11:49.975Z,8.40
2019-03-31T00:14:21.115Z,8.40
2019-03-31T00:16:52.701Z,8.40
2019-03-31T00:19:23.867Z,8.30
2019-03-31T00:21:55.080Z,8.30
2019-03-31T00:24:26.265Z,8.30
2019-03-31T00:26:57.480Z,8.20
2019-03-31T00:29:28.712Z,8.20
2019-03-31T00:31:59.872Z,8.10
2019-03-31T00:34:31.013Z,8.10
2019-03-31T00:37:02.195Z,8.10
2019-03-31T00:39:33.412Z,8.00
2019-03-31T00:42:04.605Z,8.00
2019-03-31T00:44:35.743Z,8.00
2019-03-31T00:47:06.946Z,7.90
2019-03-31T00:49:38.549Z,7.90
2019-03-31T00:52:10.075Z,7.90
2019-03-31T00:54:41.307Z,7.80
2019-03-31T00:57:12.528Z,7.80
2019-03-31T00:59:43.653Z,7.80
2019-03-31T01:02:18.251Z,7.70
2019-03-31T01:04:49.795Z,7.70
2019-03-31T01:07:23.857Z,7.60
2019-03-31T01:09:57.458Z,7.60
2019-03-31T01:12:28.859Z,7.60
2019-03-31T01:15:00.395Z,7.50
2019-03-31T01:17:33.599Z,7.50
2019-03-31T01:20:05.118Z,7.50
2019-03-31T01:22:36.937Z,7.40
2019-03-31T01:25:08.877Z,7.40
2019-03-31T01:27:40.104Z,7.40
2019-03-31T01:30:12.106Z,7.30
2019-03-31T01:32:43.364Z,7.30
2019-03-31T01:35:15.240Z,7.20
2019-03-31T01:37:46.419Z,7.20
2019-03-31T01:40:17.750Z,7.20
2019-03-31T01:42:48.974Z,7.10
2019-03-31T01:45:20.201Z,7.10
2019-03-31T01:47:51.407Z,7.10
2019-03-31T01:50:24.008Z,7.10
2019-03-31T01:52:55.156Z,7.10
2019-03-31T01:55:26.426Z,7.00
2019-03-31T01:57:58.059Z,7.00
2019-03-31T02:00:39.420Z,6.90
2019-03-31T02:03:10.661Z,6.90
2019-03-31T02:05:41.879Z,6.90
2019-03-31T02:08:13.092Z,6.80
2019-03-31T02:10:44.251Z,6.80
2019-03-31T02:13:15.395Z,6.80
2019-03-31T02:15:46.595Z,6.80
2019-03-31T02:18:17.809Z,6.80
2019-03-31T02:20:48.935Z,6.80
2019-03-31T02:23:20.813Z,6.80
2019-03-31T02:25:52.375Z,6.80
2019-03-31T02:28:23.504Z,6.70
2019-03-31T02:30:54.605Z,6.70
2019-03-31T02:33:25.741Z,6.70
2019-03-31T02:35:56.907Z,6.70
2019-03-31T02:38:28.124Z,6.70
2019-03-31T02:40:59.346Z,6.70
2019-03-31T02:43:31.571Z,6.60
2019-03-31T02:46:02.900Z,6.60
2019-03-31T02:48:34.126Z,6.60
2019-03-31T02:51:05.255Z,6.60
2019-03-31T02:53:36.528Z,6.50
2019-03-31T02:56:07.987Z,6.50
2019-03-31T02:58:39.345Z,6.50
2019-03-31T03:01:10.761Z,6.50
2019-03-31T03:03:42.692Z,6.50
2019-03-31T03:06:15.089Z,6.50
2019-03-31T03:08:49.713Z,6.40
2019-03-31T03:11:22.923Z,6.40
2019-03-31T03:13:56.436Z,6.40
2019-03-31T03:16:27.754Z,6.40
2019-03-31T03:18:58.874Z,6.30
2019-03-31T03:21:30.208Z,6.30
2019-03-31T03:24:01.493Z,6.30
2019-03-31T03:26:32.752Z,6.30
2019-03-31T03:29:04.291Z,6.20
2019-03-31T03:31:35.457Z,6.30
2019-03-31T03:34:06.720Z,6.30
2019-03-31T03:36:37.973Z,6.30
2019-03-31T03:39:09.323Z,6.30
2019-03-31T03:41:40.574Z,6.20
2019-03-31T03:44:11.789Z,6.20
2019-03-31T03:46:42.839Z,6.20
2019-03-31T03:49:14.300Z,6.20
2019-03-31T03:51:45.615Z,6.20
2019-03-31T03:54:16.904Z,6.20
2019-03-31T03:56:48.000Z,6.10
2019-03-31T03:59:19.120Z,6.10
2019-03-31T04:01:50.310Z,6.10
2019-03-31T04:04:21.539Z,6.10
2019-03-31T04:06:53.474Z,6.10
2019-03-31T04:09:24.587Z,6.00
2019-03-31T04:11:55.775Z,6.00
2019-03-31T04:14:27.116Z,6.00
2019-03-31T04:16:58.646Z,6.00
2019-03-31T04:19:29.854Z,6.00
2019-03-31T04:22:01.101Z,6.00
2019-03-31T04:24:34.134Z,6.00
2019-03-31T04:27:05.341Z,6.00
2019-03-31T04:29:36.568Z,6.00
2019-03-31T04:32:07.822Z,6.00
2019-03-31T04:34:38.944Z,6.00
2019-03-31T04:37:10.785Z,6.00
2019-03-31T04:39:42.044Z,6.00
2019-03-31T04:42:13.636Z,5.90
2019-03-31T04:44:45.623Z,5.90
2019-03-31T04:47:16.686Z,5.90
2019-03-31T04:49:47.862Z,5.80
2019-03-31T04:52:19.072Z,5.80
2019-03-31T04:54:50.309Z,5.80
2019-03-31T04:57:21.504Z,5.70
2019-03-31T04:59:52.729Z,5.70
2019-03-31T05:02:27.064Z,5.80
2019-03-31T05:04:56.955Z,5.80
2019-03-31T05:07:29.127Z,5.80
2019-03-31T05:10:00.405Z,5.80
2019-03-31T05:12:31.765Z,5.90
2019-03-31T05:15:03.156Z,5.90
2019-03-31T05:17:35.951Z,5.90
2019-03-31T05:20:07.592Z,6.00
2019-03-31T05:22:38.725Z,6.10
2019-03-31T05:25:09.850Z,6.10
2019-03-31T05:27:41.053Z,6.20
2019-03-31T05:30:12.158Z,6.40
2019-03-31T05:32:43.438Z,6.60
2019-03-31T05:35:14.687Z,7.10
2019-03-31T05:37:51.023Z,7.70
2019-03-31T05:40:18.888Z,8.30
2019-03-31T05:42:50.365Z,9.10
2019-03-31T05:45:21.575Z,9.90
2019-03-31T05:47:52.673Z,10.50
2019-03-31T05:50:23.869Z,11.20
2019-03-31T05:52:55.243Z,12.30
2019-03-31T05:55:26.339Z,13.70
2019-03-31T05:57:57.917Z,14.70
2019-03-31T06:00:37.473Z,15.10
2019-03-31T06:03:09.158Z,15.40
2019-03-31T06:05:40.303Z,16.50
2019-03-31T06:08:11.591Z,17.60
2019-03-31T06:10:42.710Z,18.50
2019-03-31T06:13:13.892Z,19.20
2019-03-31T06:15:45.101Z,19.80
2019-03-31T06:18:16.198Z,20.50
2019-03-31T06:20:47.459Z,21.60
2019-03-31T06:23:18.551Z,22.80
2019-03-31T06:25:49.799Z,23.80
2019-03-31T06:28:21.019Z,24.90
2019-03-31T06:30:52.171Z,26.10
2019-03-31T06:33:23.306Z,27.10
2019-03-31T06:35:54.451Z,28.00
2019-03-31T06:38:25.671Z,29.00
2019-03-31T06:40:56.867Z,29.70
2019-03-31T06:43:28.097Z,30.30
2019-03-31T06:45:59.418Z,30.80
2019-03-31T06:48:30.665Z,31.20
2019-03-31T06:51:02.087Z,32.00
2019-03-31T06:53:33.289Z,32.50
2019-03-31T06:56:04.415Z,32.60
2019-03-31T06:58:35.677Z,33.10
2019-03-31T07:01:06.927Z,33.90
2019-03-31T07:03:38.040Z,34.70
2019-03-31T07:06:09.257Z,35.10
2019-03-31T07:08:40.518Z,35.60
2019-03-31T07:11:12.134Z,35.80
2019-03-31T07:13:43.221Z,36.10
2019-03-31T07:16:14.392Z,36.40
2019-03-31T07:18:45.598Z,36.90
2019-03-31T07:21:17.221Z,37.20
2019-03-31T07:23:48.878Z,37.80
2019-03-31T07:26:19.949Z,38.20
2019-03-31T07:28:51.188Z,38.70
2019-03-31T07:31:22.361Z,39.20
2019-03-31T07:33:53.580Z,39.40
2019-03-31T07:36:24.703Z,39.60
2019-03-31T07:38:55.936Z,39.80
2019-03-31T07:41:27.493Z,40.20
2019-03-31T07:43:58.901Z,40.70
2019-03-31T07:46:30.125Z,41.00
2019-03-31T07:49:01.320Z,41.50
2019-03-31T07:51:32.592Z,41.90
2019-03-31T07:54:03.788Z,42.20
2019-03-31T07:56:35.092Z,42.40
2019-03-31T07:59:06.367Z,42.80
2019-03-31T08:01:37.766Z,43.10
2019-03-31T08:04:08.849Z,43.20
2019-03-31T08:06:41.217Z,43.10
2019-03-31T08:09:12.342Z,43.20
2019-03-31T08:11:43.562Z,43.40
2019-03-31T08:14:14.782Z,43.20
2019-03-31T08:16:45.998Z,43.70
2019-03-31T08:19:20.644Z,44.10
2019-03-31T08:21:50.064Z,44.50
2019-03-31T08:24:21.247Z,44.50
2019-03-31T08:26:52.666Z,44.40
2019-03-31T08:29:23.900Z,44.70
2019-03-31T08:31:55.065Z,45.20
2019-03-31T08:34:26.644Z,45.40
2019-03-31T08:36:58.258Z,45.70
2019-03-31T08:39:29.422Z,46.00
2019-03-31T08:42:00.950Z,46.20
2019-03-31T08:44:32.453Z,46.20
2019-03-31T08:47:04.169Z,46.20
2019-03-31T08:49:35.268Z,46.30
2019-03-31T08:52:06.621Z,46.40
2019-03-31T08:54:38.153Z,46.40
2019-03-31T08:57:09.471Z,46.40
2019-03-31T08:59:40.630Z,46.50
2019-03-31T09:02:29.679Z,46.60
2019-03-31T09:05:00.892Z,46.50
2019-03-31T09:07:32.458Z,46.40
2019-03-31T09:10:03.768Z,46.50
2019-03-31T09:12:35.285Z,46.50
2019-03-31T09:15:08.330Z,46.60
2019-03-31T09:17:39.924Z,46.80
2019-03-31T09:20:13.136Z,46.70
2019-03-31T09:22:44.330Z,46.60
2019-03-31T09:25:15.483Z,46.80
2019-03-31T09:27:46.626Z,46.60
2019-03-31T09:30:17.873Z,46.50
2019-03-31T09:32:49.026Z,46.50
2019-03-31T09:35:20.136Z,46.50
2019-03-31T09:37:51.344Z,46.50
2019-03-31T09:40:22.771Z,46.50
2019-03-31T09:42:53.882Z,46.60
2019-03-31T09:45:25.158Z,46.60
2019-03-31T09:47:56.519Z,46.20
2019-03-31T09:50:27.802Z,46.00
2019-03-31T09:52:58.993Z,45.90
2019-03-31T09:55:30.246Z,45.90
2019-03-31T09:58:01.404Z,45.70
2019-03-31T10:00:45.295Z,45.60
2019-03-31T10:03:17.103Z,45.50
2019-03-31T10:05:48.526Z,45.40
2019-03-31T10:08:22.271Z,45.30
2019-03-31T10:10:54.180Z,45.00
2019-03-31T10:13:25.402Z,44.80
2019-03-31T10:15:58.100Z,44.60
2019-03-31T10:18:29.239Z,43.70
2019-03-31T10:21:00.320Z,42.90
2019-03-31T10:23:32.113Z,42.40
2019-03-31T10:26:03.476Z,42.10
2019-03-31T10:28:34.839Z,42.00
2019-03-31T10:31:06.923Z,41.90
2019-03-31T10:33:38.103Z,41.60
2019-03-31T10:36:12.633Z,41.20
2019-03-31T10:38:42.097Z,40.80
2019-03-31T10:41:13.739Z,40.20
2019-03-31T10:43:44.968Z,39.50
2019-03-31T10:46:16.138Z,38.40
2019-03-31T10:48:47.333Z,36.60
2019-03-31T10:51:19.525Z,35.10
2019-03-31T10:53:50.641Z,34.00
2019-03-31T10:56:21.756Z,33.20
2019-03-31T10:58:53.230Z,32.80
2019-03-31T11:01:24.488Z,32.40
2019-03-31T11:03:55.925Z,31.90
2019-03-31T11:06:32.114Z,31.30
2019-03-31T11:09:05.448Z,30.60
2019-03-31T11:11:36.725Z,29.90
2019-03-31T11:14:07.970Z,29.40
2019-03-31T11:16:39.231Z,29.10
2019-03-31T11:19:10.575Z,29.00
2019-03-31T11:21:52.212Z,29.00
2019-03-31T11:24:23.384Z,29.00
2019-03-31T11:26:54.585Z,28.70
2019-03-31T11:29:25.688Z,28.40
2019-03-31T11:31:56.942Z,28.00
2019-03-31T11:34:28.173Z,27.70
2019-03-31T11:37:12.524Z,27.20
2019-03-31T11:39:32.430Z,27.00
2019-03-31T11:42:03.621Z,26.90
2019-03-31T11:44:34.756Z,26.90
2019-03-31T11:47:05.888Z,26.80
2019-03-31T11:49:37.192Z,26.60
2019-03-31T11:52:08.439Z,26.30
2019-03-31T11:54:39.565Z,26.10
2019-03-31T11:57:10.868Z,26.20
2019-03-31T11:59:42.207Z,26.40
2019-03-31T12:02:26.327Z,26.50
2019-03-31T12:04:46.911Z,26.60
2019-03-31T12:07:27.815Z,26.60
2019-03-31T12:09:53.979Z,26.40
2019-03-31T12:12:25.117Z,26.30
2019-03-31T12:15:00.545Z,26.30
2019-03-31T12:17:30.284Z,26.40
2019-03-31T12:20:01.797Z,26.40
2019-03-31T12:22:33.087Z,26.50
2019-03-31T12:25:04.627Z,26.60
2019-03-31T12:27:36.748Z,26.60
2019-03-31T12:30:08.191Z,26.50
2019-03-31T12:32:39.400Z,26.30
2019-03-31T12:35:11.013Z,26.20
2019-03-31T12:37:43.447Z,26.00
2019-03-31T12:40:28.896Z,25.70
2019-03-31T12:43:00.051Z,25.50
2019-03-31T12:45:32.152Z,25.10
2019-03-31T12:48:03.412Z,24.80
2019-03-31T12:50:35.650Z,24.30
2019-03-31T12:53:06.910Z,24.00
2019-03-31T12:55:38.150Z,23.70
2019-03-31T12:58:09.357Z,23.60
2019-03-31T13:00:40.995Z,23.50
2019-03-31T13:03:15.888Z,23.50
2019-03-31T13:05:45.410Z,23.30
2019-03-31T13:08:16.654Z,23.30
2019-03-31T13:10:47.883Z,23.20
2019-03-31T13:13:19.139Z,23.10
2019-03-31T13:15:50.214Z,23.10
2019-03-31T13:18:21.582Z,23.10
2019-03-31T13:20:52.746Z,23.10
2019-03-31T13:23:23.971Z,23.00
2019-03-31T13:25:55.113Z,23.00
2019-03-31T13:28:26.714Z,22.80
2019-03-31T13:30:58.871Z,22.70
2019-03-31T13:33:30.447Z,22.70
2019-03-31T13:36:01.659Z,22.80
2019-03-31T13:38:32.875Z,22.90
2019-03-31T13:41:04.658Z,22.90
2019-03-31T13:43:36.485Z,23.00
2019-03-31T13:46:07.918Z,23.00
2019-03-31T13:48:39.193Z,23.00
2019-03-31T13:51:10.471Z,23.00
2019-03-31T13:53:41.778Z,23.00
2019-03-31T13:56:13.796Z,23.00
2019-03-31T13:58:52.639Z,23.00
2019-03-31T14:01:18.607Z,23.00
2019-03-31T14:03:49.861Z,22.80
2019-03-31T14:06:21.190Z,22.50
2019-03-31T14:08:52.377Z,22.20
2019-03-31T14:11:23.575Z,21.90
2019-03-31T14:13:56.122Z,21.70
2019-03-31T14:16:29.052Z,21.50
2019-03-31T14:19:00.702Z,21.20
2019-03-31T14:21:31.905Z,21.10
2019-03-31T14:24:03.269Z,20.90
2019-03-31T14:26:34.806Z,20.90
2019-03-31T14:29:06.378Z,20.80
2019-03-31T14:31:37.537Z,20.80
2019-03-31T14:34:08.796Z,20.80
2019-03-31T14:36:41.474Z,20.70
2019-03-31T14:39:12.646Z,20.60
2019-03-31T14:41:43.973Z,20.60
2019-03-31T14:44:15.309Z,20.50
2019-03-31T14:46:46.511Z,20.50
2019-03-31T14:49:18.054Z,20.50
2019-03-31T14:51:49.336Z,20.40
2019-03-31T14:54:20.620Z,20.40
2019-03-31T14:56:51.755Z,20.30
2019-03-31T14:59:23.015Z,20.30
2019-03-31T15:01:55.172Z,20.30
2019-03-31T15:04:26.407Z,20.20
2019-03-31T15:06:57.639Z,20.20
2019-03-31T15:09:28.902Z,20.10
2019-03-31T15:12:00.007Z,20.00
2019-03-31T15:14:31.234Z,19.90
2019-03-31T15:17:02.403Z,19.80
2019-03-31T15:19:33.709Z,19.70
2019-03-31T15:22:04.790Z,19.50
2019-03-31T15:24:35.891Z,19.40
2019-03-31T15:27:07.166Z,19.30
2019-03-31T15:29:38.711Z,19.20
2019-03-31T15:32:09.985Z,19.30
2019-03-31T15:34:41.227Z,19.20
2019-03-31T15:37:12.541Z,19.20
2019-03-31T15:39:44.179Z,19.10
2019-03-31T15:42:15.277Z,19.10
2019-03-31T15:44:46.401Z,19.00
2019-03-31T15:47:17.857Z,19.00
2019-03-31T15:49:48.965Z,19.00
2019-03-31T15:52:20.250Z,18.90
2019-03-31T15:54:51.537Z,18.90
2019-03-31T15:57:22.759Z,18.80
2019-03-31T15:59:54.242Z,18.70
2019-03-31T16:02:26.837Z,18.70
2019-03-31T16:04:58.224Z,18.60
2019-03-31T16:07:29.571Z,18.50
2019-03-31T16:10:00.397Z,18.50
2019-03-31T16:12:31.208Z,18.40
2019-03-31T16:15:01.953Z,18.30
2019-03-31T16:17:34.256Z,18.20
2019-03-31T16:20:06.108Z,18.20
2019-03-31T16:22:36.723Z,18.10
2019-03-31T16:25:14.740Z,18.10
2019-03-31T16:27:45.383Z,18.10
2019-03-31T16:30:16.029Z,18.00
2019-03-31T16:32:47.372Z,17.90
2019-03-31T16:35:18.083Z,17.90
2019-03-31T16:37:48.713Z,17.90
2019-03-31T16:40:19.359Z,17.80
2019-03-31T16:42:49.897Z,17.80
2019-03-31T16:45:20.575Z,17.70
2019-03-31T16:47:51.279Z,17.70
2019-03-31T16:50:21.822Z,17.60
2019-03-31T16:52:52.923Z,17.60
2019-03-31T16:55:24.182Z,17.50
2019-03-31T16:57:54.823Z,17.50
2019-03-31T17:00:25.488Z,17.40
2019-03-31T17:02:56.552Z,17.30
2019-03-31T17:05:27.270Z,17.30
2019-03-31T17:07:57.959Z,17.20
2019-03-31T17:10:28.733Z,17.10
2019-03-31T17:12:59.404Z,17.00
2019-03-31T17:15:30.340Z,16.90
2019-03-31T17:18:01.106Z,16.80
2019-03-31T17:20:31.761Z,16.70
2019-03-31T17:23:02.479Z,16.60
2019-03-31T17:25:33.187Z,16.50
2019-03-31T17:28:03.857Z,16.40
2019-03-31T17:30:34.530Z,16.30
2019-03-31T17:33:06.185Z,16.30
2019-03-31T17:35:36.764Z,16.20
2019-03-31T17:38:07.763Z,16.10
2019-03-31T17:40:38.375Z,15.90
2019-03-31T17:43:09.060Z,15.80
2019-03-31T17:45:39.731Z,15.70
2019-03-31T17:48:10.369Z,15.60
2019-03-31T17:50:41.081Z,15.50
2019-03-31T17:53:11.809Z,15.40
2019-03-31T17:55:43.043Z,15.20
2019-03-31T17:58:13.688Z,15.10
2019-03-31T18:00:44.486Z,15.00
2019-03-31T18:03:15.740Z,14.90
2019-03-31T18:05:46.655Z,14.80
2019-03-31T18:08:17.411Z,14.70
2019-03-31T18:10:47.958Z,14.60
2019-03-31T18:13:18.653Z,14.50
2019-03-31T18:15:49.232Z,14.40
2019-03-31T18:18:19.992Z,14.30
2019-03-31T18:20:50.726Z,14.20
2019-03-31T18:23:21.688Z,14.10
2019-03-31T18:25:52.372Z,14.10
2019-03-31T18:28:23.193Z,14.00
2019-03-31T18:30:53.930Z,13.90
2019-03-31T18:33:24.578Z,13.80
2019-03-31T18:35:55.180Z,13.70
2019-03-31T18:38:25.889Z,13.60
2019-03-31T18:40:56.607Z,13.60
2019-03-31T18:43:27.247Z,13.50
2019-03-31T18:45:58.021Z,13.40
2019-03-31T18:48:29.440Z,13.40
2019-03-31T18:51:00.192Z,13.30
2019-03-31T18:53:36.533Z,13.20
2019-03-31T18:56:19.908Z,13.10
2019-03-31T18:59:08.169Z,13.00
2019-03-31T19:01:57.848Z,12.90
2019-03-31T19:04:39.196Z,12.80
2019-03-31T19:07:27.810Z,12.80
2019-03-31T19:10:48.486Z,12.70
2019-03-31T19:13:28.761Z,12.60
2019-03-31T19:16:36.435Z,12.50
2019-03-31T19:19:17.878Z,12.40
2019-03-31T19:21:57.699Z,12.30
2019-03-31T19:24:50.407Z,12.20
2019-03-31T19:27:33.957Z,12.10
2019-03-31T19:30:24.987Z,12.10
2019-03-31T19:33:16.037Z,12.00
2019-03-31T19:35:55.898Z,11.90
2019-03-31T19:38:39.136Z,11.70
2019-03-31T19:41:21.934Z,11.70
2019-03-31T19:44:11.810Z,11.60
2019-03-31T19:47:01.555Z,11.50
2019-03-31T19:49:57.404Z,11.50
2019-03-31T19:52:59.661Z,11.40
2019-03-31T19:55:41.006Z,11.30
2019-03-31T19:58:28.321Z,11.20
2019-03-31T20:01:10.476Z,11.20
2019-03-31T20:04:01.175Z,11.10
2019-03-31T20:06:43.245Z,11.00
2019-03-31T20:09:41.901Z,10.90
2019-03-31T20:12:30.589Z,10.90
2019-03-31T20:15:21.745Z,10.80
2019-03-31T20:18:15.138Z,10.70
2019-03-31T20:21:07.430Z,10.70
2019-03-31T20:23:44.855Z,10.60
2019-03-31T20:26:37.579Z,10.50
2019-03-31T20:29:17.740Z,10.50
2019-03-31T20:32:13.726Z,10.50
2019-03-31T20:34:59.368Z,10.40
2019-03-31T20:37:48.306Z,10.40
2019-03-31T20:40:38.955Z,10.40
2019-03-31T20:43:33.168Z,10.30
2019-03-31T20:46:04.622Z,10.20
2019-03-31T20:48:37.660Z,10.20
2019-03-31T20:51:08.564Z,10.10
2019-03-31T20:53:39.222Z,10.10
2019-03-31T20:56:10.035Z,10.00
2019-03-31T20:58:40.769Z,10.10
2019-03-31T21:01:11.484Z,10.00
2019-03-31T21:03:42.072Z,10.00
2019-03-31T21:06:15.593Z,10.00
2019-03-31T21:08:46.344Z,9.90
2019-03-31T21:11:16.951Z,9.90
2019-03-31T21:13:47.624Z,9.90
2019-03-31T21:16:18.281Z,9.90
2019-03-31T21:18:48.865Z,9.80
2019-03-31T21:21:19.853Z,9.80
2019-03-31T21:23:50.430Z,9.80
2019-03-31T21:26:21.034Z,9.70
2019-03-31T21:28:52.713Z,9.70
2019-03-31T21:31:23.424Z,9.70
2019-03-31T21:33:54.088Z,9.60
2019-03-31T21:36:24.716Z,9.60
2019-03-31T21:38:56.486Z,9.50
2019-03-31T21:41:27.004Z,9.50
2019-03-31T21:43:57.780Z,9.50
2019-03-31T21:46:28.597Z,9.40
2019-03-31T21:48:59.302Z,9.40
2019-03-31T21:51:30.355Z,9.40
2019-03-31T21:54:00.914Z,9.30
2019-03-31T21:56:31.479Z,9.30
2019-03-31T21:59:02.051Z,9.30
2019-03-31T22:01:32.665Z,9.20
2019-03-31T22:04:04.472Z,9.20
2019-03-31T22:06:36.265Z,9.10
2019-03-31T22:09:09.709Z,9.10
2019-03-31T22:11:40.557Z,9.00
2019-03-31T22:14:11.237Z,9.00
2019-03-31T22:16:41.889Z,8.90
2019-03-31T22:19:12.456Z,8.90
2019-03-31T22:21:43.065Z,8.90
2019-03-31T22:24:13.654Z,8.80
2019-03-31T22:26:44.681Z,8.80
2019-03-31T22:29:15.355Z,8.70
2019-03-31T22:31:46.009Z,8.70
2019-03-31T22:34:16.621Z,8.70
2019-03-31T22:36:47.313Z,8.60
2019-03-31T22:39:17.966Z,8.60
2019-03-31T22:41:48.501Z,8.60
2019-03-31T22:44:19.199Z,8.50
2019-03-31T22:46:54.423Z,8.50
2019-03-31T22:49:22.171Z,8.50
2019-03-31T22:51:56.192Z,8.40
2019-03-31T22:54:25.156Z,8.40
2019-03-31T22:56:55.833Z,8.40
2019-03-31T22:59:26.507Z,8.30
2019-03-31T23:01:57.164Z,8.30
2019-03-31T23:04:28.166Z,8.30
2019-03-31T23:06:58.849Z,8.20
2019-03-31T23:09:29.431Z,8.30
2019-03-31T23:12:00.541Z,8.20
2019-03-31T23:14:32.226Z,8.20
2019-03-31T23:17:02.883Z,8.20
2019-03-31T23:19:33.439Z,8.10
2019-03-31T23:22:05.874Z,8.10
2019-03-31T23:24:36.542Z,8.10
2019-03-31T23:27:07.173Z,8.00
2019-03-31T23:29:37.866Z,8.00
2019-03-31T23:32:09.327Z,8.00
2019-03-31T23:34:40.042Z,8.00
2019-03-31T23:37:10.743Z,7.90
2019-03-31T23:39:41.543Z,7.90
2019-03-31T23:42:12.065Z,7.90
2019-03-31T23:44:43.381Z,7.80
2019-03-31T23:47:13.971Z,7.80
2019-03-31T23:49:44.632Z,7.80
2019-03-31T23:52:15.765Z,7.80
2019-03-31T23:54:47.135Z,7.80
2019-03-31T23:57:17.738Z,7.70
2019-03-31T23:59:48.725Z,7.70
